Latest Weather Observations for Mangrove Mountain

IDN60801

Issued at 11:04 pm EDT Wednesday 28 January 2015 (issued every 30 minutes, with the page automatically refreshed every 10 minutes)

About weather observations | Map of weather stations | Latest weather observations for NSW | Other Formats
Station Details ID: 061375 Name: MANGROVE MOUNTAIN AWS Lat: -33.29 Lon: 151.21 Height: 305.0 m
Data from the previous 72 hours. | See also: Recent months at Mangrove Mountain
Date/Time
EDT
Temp
°C
App
Temp
°C
Dew
Point
Rel
Hum
%
Delta-T
°C
Wind Press
QNH
hPa
Press
MSL
hPa
Rain
since 9 am
mm
Dir
 
Spd
km/h
Gust
km/h
Spd
kts
Gust
kts
28/11:00pm 14.0 13.9 13.4 96 0.3 SW 6 9 3 5 - - 12.6
28/10:30pm 14.1 14.4 13.5 96 0.3 SW 4 6 2 3 - - 12.6
28/10:00pm 14.6 15.1 14.0 96 0.3 SW 4 7 2 4 - - 12.6
28/09:30pm 14.9 16.0 14.6 98 0.2 SW 2 6 1 3 - - 12.6
28/09:00pm 15.2 16.4 14.9 98 0.2 S 2 4 1 2 - - 12.6
28/08:30pm 15.4 15.3 14.9 97 0.3 SSE 9 15 5 8 - - 12.6
28/08:00pm 16.1 17.6 15.6 97 0.3 S 2 7 1 4 - - 11.0
28/07:30pm 16.1 17.2 15.6 97 0.3 SSW 4 6 2 3 - - 11.0
28/07:00pm 16.0 16.7 15.5 97 0.3 SE 6 13 3 7 - - 11.0
28/06:30pm 16.2 17.6 15.4 95 0.5 S 2 4 1 2 - - 9.0
28/06:00pm 16.3 17.2 15.2 93 0.6 S 4 6 2 3 - - 8.8
28/05:30pm 16.3 17.4 15.7 96 0.4 SSE 4 9 2 5 - - 8.8
28/05:00pm 15.7 15.9 14.6 93 0.6 SSW 7 17 4 9 - - 8.8
28/04:30pm 16.8 17.5 15.5 92 0.8 S 6 9 3 5 - - 8.8
28/04:00pm 16.7 17.6 16.1 96 0.4 S 6 13 3 7 - - 8.8
28/03:30pm 16.4 16.5 15.6 95 0.5 S 9 13 5 7 - - 8.4
28/03:00pm 16.5 16.8 15.9 96 0.4 SSE 9 17 5 9 - - 8.4
28/02:30pm 16.4 16.7 15.9 97 0.3 SSE 9 17 5 9 - - 8.2
28/02:00pm 16.6 15.8 16.1 97 0.3 S 15 22 8 12 - - 8.2
28/01:30pm 16.4 16.3 16.1 98 0.2 SSE 11 20 6 11 - - 7.8
28/01:00pm 16.0 15.8 15.7 98 0.2 SSE 11 19 6 10 - - 7.8
28/12:30pm 16.4 16.3 16.1 98 0.2 S 11 20 6 11 - - 7.2
28/12:00pm 16.4 16.7 15.9 97 0.3 S 9 19 5 10 - - 6.8
28/11:30am 16.7 16.8 16.5 99 0.1 S 11 17 6 9 - - 6.8
28/11:00am 16.8 17.0 16.8 100 0.0 S 11 17 6 9 - - 6.8
28/10:30am 16.2 16.9 16.2 100 0.0 S 7 11 4 6 - - 6.6
28/10:00am 16.1 16.8 16.1 100 0.0 SSE 7 13 4 7 - - 6.4
28/09:30am 15.8 16.0 15.8 100 0.0 S 9 17 5 9 - - 4.8
28/09:00am 15.9 16.7 15.9 100 0.0 SSW 6 9 3 5 - - 93.8
28/08:30am 15.8 16.6 15.8 100 0.0 SW 6 13 3 7 - - 92.8
28/08:00am 15.9 17.1 15.9 100 0.0 SSW 4 11 2 6 - - 90.4
28/07:30am 15.9 16.7 15.9 100 0.0 S 6 13 3 7 - - 89.4
28/07:00am 15.7 15.1 15.7 100 0.0 SSE 13 20 7 11 - - 88.0
28/06:30am 16.0 16.9 16.0 100 0.0 S 6 9 3 5 - - 84.0
28/06:00am 15.9 17.5 15.9 100 0.0 SSW 2 9 1 5 - - 82.0
28/05:30am 15.9 16.7 15.9 100 0.0 S 6 11 3 6 - - 77.8
28/05:00am 16.0 16.3 16.0 100 0.0 SSE 9 20 5 11 - - 74.8
28/04:30am 16.1 16.4 16.1 100 0.0 S 9 19 5 10 - - 72.0
28/04:00am 16.0 17.2 16.0 100 0.0 SW 4 9 2 5 - - 71.4
28/03:30am 16.0 16.9 16.0 100 0.0 S 6 11 3 6 - - 70.8
28/03:00am 16.3 17.3 16.3 100 0.0 SSE 6 7 3 4 - - 69.4
28/02:30am 16.1 17.0 16.1 100 0.0 SE 6 13 3 7 - - 67.0
28/02:00am 16.1 16.4 16.1 100 0.0 ESE 9 15 5 8 - - 64.6
28/01:30am 16.6 17.7 16.6 100 0.0 SSE 6 13 3 7 - - 60.0
28/01:00am 16.7 18.2 16.7 100 0.0 SSE 4 6 2 3 - - 56.0
28/12:30am 16.8 18.0 16.8 100 0.0 SSE 6 9 3 5 - - 55.2
28/12:00am 16.6 17.5 16.6 100 0.0 ESE 7 15 4 8 - - 53.6
 
Date/Time
EDT
Temp
°C
App
Temp
°C
Dew
Point
Rel
Hum
%
Delta-T
°C
Wind Press
QNH
hPa
Press
MSL
hPa
Rain
since 9 am
mm
Dir
 
Spd
km/h
Gust
km/h
Spd
kts
Gust
kts
27/11:30pm 16.8 17.4 16.8 100 0.0 ESE 9 17 5 9 - - 50.8
27/11:00pm 16.9 18.1 16.9 100 0.0 ESE 6 13 3 7 - - 47.2
27/10:30pm 17.0 19.0 17.0 100 0.0 NE 2 6 1 3 - - 39.8
27/10:00pm 17.0 18.6 17.0 100 0.0 SE 4 7 2 4 - - 34.4
27/09:30pm 17.0 18.6 17.0 100 0.0 SSE 4 7 2 4 - - 30.8
27/09:00pm 17.2 18.5 17.2 100 0.0 SSE 6 7 3 4 - - 28.6
27/08:30pm 17.4 19.6 17.4 100 0.0 ESE 2 4 1 2 - - 25.2
27/08:00pm 17.1 19.5 17.1 100 0.0 CALM 0 0 0 0 - - 25.2
27/07:30pm 17.2 19.3 17.2 100 0.0 SSE 2 6 1 3 - - 25.2
27/07:00pm 17.2 19.3 17.2 100 0.0 SE 2 6 1 3 - - 25.2
27/06:30pm 17.2 18.9 17.2 100 0.0 ESE 4 7 2 4 - - 25.2
27/06:00pm 17.3 18.5 17.3 100 0.0 E 7 11 4 6 - - 25.0
27/05:30pm 17.3 18.1 17.3 100 0.0 E 9 15 5 8 - - 24.8
27/05:00pm 17.3 18.0 17.1 99 0.1 SE 9 15 5 8 - - 20.6
27/04:30pm 18.2 20.0 18.2 100 0.0 ESE 6 7 3 4 - - 20.0
27/04:00pm 17.8 19.4 17.8 100 0.0 ESE 6 13 3 7 - - 19.8
27/03:30pm 17.7 19.2 17.5 99 0.1 ESE 6 9 3 5 - - 17.4
27/03:00pm 17.5 18.7 17.3 99 0.1 E 7 11 4 6 - - 17.2
27/02:30pm 17.3 17.3 17.1 99 0.1 E 13 22 7 12 - - 17.0
27/02:00pm 17.6 17.3 17.4 99 0.1 E 15 20 8 11 - - 17.0
27/01:30pm 17.4 17.8 17.2 99 0.1 E 11 17 6 9 - - 15.8
27/01:00pm 17.5 18.4 17.5 100 0.0 E 9 19 5 10 - - 14.8
27/12:30pm 17.5 18.0 17.5 100 0.0 ESE 11 19 6 10 - - 14.6
27/12:00pm 17.0 17.3 17.0 100 0.0 ESE 11 19 6 10 - - 14.4
27/11:30am 17.0 18.6 17.0 100 0.0 SSE 4 7 2 4 - - 12.8
27/11:00am 16.7 18.6 16.7 100 0.0 ENE 2 4 1 2 - - 9.0
27/10:30am 16.5 16.5 16.3 99 0.1 E 11 19 6 10 - - 5.2
27/10:00am 17.1 18.4 17.1 100 0.0 E 6 11 3 6 - - 2.4
27/09:30am 17.1 17.7 16.9 99 0.1 E 9 15 5 8 - - 1.0
27/09:00am 17.6 18.9 17.6 100 0.0 E 7 15 4 8 - - 41.0
27/08:30am 17.6 18.9 17.6 100 0.0 ENE 7 11 4 6 - - 40.4
27/08:00am 17.6 19.1 17.6 100 0.0 ENE 6 11 3 6 - - 38.2
27/07:30am 17.4 19.6 17.4 100 0.0 NW 2 6 1 3 - - 37.4
27/07:00am 17.8 20.5 17.8 100 0.0 CALM 0 0 0 0 - - 31.4
27/06:30am 17.5 19.0 17.5 100 0.0 SSE 6 7 3 4 - - 31.4
27/06:00am 17.4 19.6 17.4 100 0.0 S 2 7 1 4 - - 31.4
27/05:30am 17.3 19.4 17.3 100 0.0 SSW 2 6 1 3 - - 31.4
27/05:00am 17.3 19.8 17.3 100 0.0 CALM 0 2 0 1 - - 31.4
27/04:30am 17.0 19.4 17.0 100 0.0 CALM 0 4 0 2 - - 29.6
27/04:00am 17.8 19.8 17.8 100 0.0 WSW 4 6 2 3 - - 20.4
27/03:30am 17.9 20.3 17.9 100 0.0 S 2 4 1 2 - - 18.4
27/03:00am 17.9 20.3 17.9 100 0.0 SSW 2 6 1 3 - - 18.2
27/02:30am 17.8 20.1 17.8 100 0.0 SSE 2 6 1 3 - - 18.2
27/02:00am 17.8 20.1 17.8 100 0.0 SSE 2 9 1 5 - - 18.2
27/01:30am 17.9 19.5 17.9 100 0.0 SE 6 11 3 6 - - 18.2
27/01:00am 17.8 18.8 17.8 100 0.0 ESE 9 15 5 8 - - 18.0
27/12:30am 17.8 19.4 17.8 100 0.0 ESE 6 15 3 8 - - 17.4
27/12:00am 17.7 19.2 17.7 100 0.0 SE 6 11 3 6 - - 16.4
 
Date/Time
EDT
Temp
°C
App
Temp
°C
Dew
Point
Rel
Hum
%
Delta-T
°C
Wind Press
QNH
hPa
Press
MSL
hPa
Rain
since 9 am
mm
Dir
 
Spd
km/h
Gust
km/h
Spd
kts
Gust
kts
26/11:30pm 17.7 19.2 17.7 100 0.0 SSE 6 9 3 5 - - 12.8
26/11:00pm 17.7 19.1 17.7 100 0.0 SSE 7 11 4 6 - - 12.6
26/10:30pm 17.8 19.4 17.8 100 0.0 SSE 6 9 3 5 - - 12.4
26/10:00pm 17.7 19.2 17.7 100 0.0 ESE 6 11 3 6 - - 12.4
26/09:30pm 17.7 19.1 17.7 100 0.0 SSE 7 13 4 7 - - 12.2
26/09:00pm 17.7 19.1 17.7 100 0.0 SSE 7 15 4 8 - - 11.6
26/08:30pm 17.7 19.1 17.7 100 0.0 SSE 7 11 4 6 - - 11.6
26/08:00pm 17.7 19.1 17.7 100 0.0 SSE 7 13 4 7 - - 11.6
26/07:30pm 17.6 18.9 17.6 100 0.0 SSE 7 11 4 6 - - 11.6
26/07:00pm 17.8 19.2 17.8 100 0.0 SE 7 13 4 7 - - 11.6
26/06:30pm 17.8 19.2 17.8 100 0.0 SSE 7 11 4 6 - - 11.2
26/06:00pm 18.0 18.7 18.0 100 0.0 SSE 11 19 6 10 - - 10.6
26/05:30pm 17.9 19.0 17.9 100 0.0 SSE 9 19 5 10 - - 10.0
26/05:00pm 17.9 18.5 17.7 99 0.1 SSE 11 19 6 10 - - 9.0
26/04:30pm 18.1 19.2 17.9 99 0.1 SE 9 15 5 8 - - 7.8
26/04:00pm 18.3 19.5 18.3 100 0.0 SSE 9 15 5 8 - - 6.8
26/03:30pm 18.1 19.2 17.9 99 0.1 SSE 9 17 5 9 - - 5.0
26/03:00pm 18.1 18.8 17.9 99 0.1 SE 11 17 6 9 - - 4.2
26/02:30pm 18.2 18.6 18.2 100 0.0 SSE 13 19 7 10 - - 3.8
26/02:00pm 18.1 18.8 17.9 99 0.1 SSE 11 19 6 10 - - 3.0
26/01:30pm 18.2 18.5 18.0 99 0.1 SSE 13 20 7 11 - - 2.4
26/01:00pm 18.2 18.5 17.9 98 0.2 SSE 13 20 7 11 - - 1.6
26/12:30pm 18.5 20.1 18.2 98 0.2 SSE 7 13 4 7 - - 1.2
26/12:00pm 18.5 19.2 17.9 96 0.4 SE 11 19 6 10 - - 0.8
26/11:30am 18.7 19.0 17.9 95 0.5 SE 13 20 7 11 - - 0.6
26/11:00am 18.9 19.7 18.2 96 0.4 SE 11 19 6 10 - - 0.6
26/10:30am 18.9 20.4 18.1 95 0.5 SSE 7 15 4 8 - - 0.4
26/10:00am 18.8 20.5 18.5 98 0.2 SSE 7 13 4 7 - - 0.4
26/09:30am 18.6 20.2 18.3 98 0.2 SSE 7 13 4 7 - - 0.4
26/09:00am 18.5 20.2 18.0 97 0.3 S 6 13 3 7 - - 0.4
26/08:30am 18.4 20.4 17.9 97 0.3 SSW 4 9 2 5 - - 0.4
26/08:00am 18.3 19.8 18.0 98 0.2 S 7 13 4 7 - - 0.4
26/07:30am 18.3 19.8 18.0 98 0.2 S 7 15 4 8 - - 0.4
26/07:00am 18.2 19.7 17.7 97 0.3 S 6 13 3 7 - - 0.4
26/06:30am 18.4 20.0 17.8 96 0.4 S 6 9 3 5 - - 0.4
26/06:00am 18.5 20.8 17.7 95 0.5 SSW 2 9 1 5 - - 0.0
26/05:30am 18.8 20.6 17.5 92 0.8 S 4 11 2 6 - - 0.0
26/05:00am 19.2 20.0 17.3 89 1.2 S 9 17 5 9 - - 0.0
26/04:30am 19.6 20.1 17.4 87 1.4 SSE 11 19 6 10 - - 0.0
26/04:00am 19.9 21.2 17.5 86 1.5 SSW 7 15 4 8 - - 0.0
26/03:30am 20.0 21.3 17.6 86 1.5 S 7 13 4 7 - - 0.0
26/03:00am 20.2 20.8 17.8 86 1.5 SSE 11 15 6 8 - - 0.0
26/02:30am 20.2 21.3 18.0 87 1.4 S 9 15 5 8 - - 0.0
26/02:00am 20.4 22.0 18.3 88 1.3 S 7 15 4 8 - - 0.0
26/01:30am 20.6 21.9 18.4 87 1.4 SSE 9 17 5 9 - - 0.0
26/01:00am 20.7 22.0 18.5 87 1.4 S 9 19 5 10 - - 0.0
26/12:30am 20.9 21.8 18.5 86 1.5 SSE 11 20 6 11 - - 0.0
26/12:00am 21.1 22.5 18.7 86 1.5 SSE 9 20 5 11 - - 0.0
 
Date/Time
EDT
Temp
°C
App
Temp
°C
Dew
Point
Rel
Hum
%
Delta-T
°C
Wind Press
QNH
hPa
Press
MSL
hPa
Rain
since 9 am
mm
Dir
 
Spd
km/h
Gust
km/h
Spd
kts
Gust
kts
25/11:30pm 21.2 21.9 18.8 86 1.5 S 13 20 7 11 - - 0.0

Other Formats:

Comma delimited format used in spreadsheet applications
http://www.bom.gov.au/fwo/IDN60801/IDN60801.95774.axf

JavaScript Object Notation format (JSON) in row-major order
http://www.bom.gov.au/fwo/IDN60801/IDN60801.95774.json